Hovedside
METAR-TAF:

METAR-TAF

Lufthavner :

Haugesund lufthavn. Karmøy

Haugesund, Norge

breddegrad: 59-21N, lengdegrad: 005-13E, høyde over havet: 2 m

Gjeldene værobservasjon

Denne rapporten ble laget for 12 minutter siden, klokken 03:50 UTC
Vind 8 kt fra Øst
Temperatur 1°C
Luftfuktighet 93%
Trykk 1014 hPa
Sikt 10 km eller mer

METAR: ENHD 200350Z AUTO 10008KT 9999 OVC035/// 01/00 Q1014

Tid: 05:02 (04:02 UTC)

Varsel

Denne rapporten ble laget for 11 timer og 2 minutter siden, klokken 17:00 UTC
Varsel gyldig fra 19. klokken 18 UTC til 19. klokken 22 UTC
Vind 7 kt fra Sørøst
Sikt 10 km eller mer
Få skyer i en høyde av 2000 ft, Tårnskyer (cumulus).
Spredte skyer i en høyde av 4000 ft
Sannsynlighet 30% :
Midlertidig
fra 19. klokken 18 UTC til 19. klokken 22 UTC
Sikt: 1200 m
i en høyde av 800 ft
snøbyger

TAF: ENHD 191700Z 1918/1922 13007KT 9999 FEW020TCU SCT040 PROB30 TEMPO 1918/1922 1200 SHSN VV008

Værobservasjoner og værvarsel for over 4000 flyplasser (METAR- og TAF-rapporter).

Tilgjengelige stasjoner er representert av de røde og gule prikkene på kartet.

Hold musepekeren over prikken for å se navnet på stasjonen.

Klikk så for å se værobservasjoner og -varsler.

For å forandre kartet kan du klikke på den grønne knappen med svart kryss for å zoome inn, på den grønne knappen med strek for å zoome ut, eller på de grønne pilene for å se tilstøtende kart.


METAR-TAF: